Main page
METAR-TAF:

METAR-TAF

Airports :

Béziers, France

Béziers Cap d'Agde Airport

latitude: 43-19N, longitude: 003-21E, elevation: 17 m

Current weather observation

The report was made 18 minutes ago, at 03:30 UTC
Wind 2 kt from variable directions
Temperature 9°C
Humidity 76%
Pressure 1022 hPa
Visibility 10 km or more
no clouds below 1500 m and no cumulonimbus

METAR: LFMU 200330Z AUTO VRB02KT CAVOK 09/05 Q1022 NOSIG

Time: 05:48 (03:48 UTC)

Forecast

The report was made 1 hour and 48 minutes ago, at 02:00 UTC
Forecast valid from 20 at 03 UTC to 21 at 03 UTC
Wind 6 kt from the Northwest
Visibility 10 km or more
no clouds below 1500 m and no cumulonimbus
Becoming
from 20 at 11 UTC to 20 at 15 UTC
Wind 10 kt from the South/Southwest
Becoming
from 20 at 19 UTC to 20 at 23 UTC
Wind 5 kt from variable directions

TAF: LFMU 200200Z 2003/2103 32006KT CAVOK BECMG 2011/2015 20010KT BECMG 2019/2023 VRB05KT

Weather observations and forecasts of more than 4000 airports (METAR and TAF reports).

The available stations are represented by yellow and red dots on the map.

Hover mouse over dot to see the name of the station.

Then click to see weather observations and forecasts.

To change the map : click on the green buttons with a black cross to zoom in, on the green button with a dash to zoom out, or on the green arrows for adjacent maps.


METAR-TAF: